Latest Weather Observations for Noonamah

IDD60801

Issued at 9:31 pm CST Saturday 20 December 2014 (issued every 30 minutes, with the page automatically refreshed every 10 minutes)

About weather observations | Map of weather stations | Latest weather observations for NT | Other Formats
Station Details ID: 014314 Name: NOONAMAH AIRSTRIP Lat: -12.61 Lon: 131.05 Height: 17.5 m
Data from the previous 72 hours. | See also: Recent months for locations in Northern Territory
Date/Time
CST
Temp
°C
App
Temp
°C
Dew
Point
Rel
Hum
%
Delta-T
°C
Wind Press
QNH
hPa
Press
MSL
hPa
Rain
since 9 am
mm
Dir
 
Spd
km/h
Gust
km/h
Spd
kts
Gust
kts
20/09:30pm 30.3 34.0 22.2 62 5.5 NNW 6 7 3 4 1007.2 1007.0 0.0
20/09:00pm 30.7 34.6 21.8 59 6.0 N 4 4 2 2 1006.8 1006.6 0.0
20/08:30pm 31.2 35.4 21.7 57 6.4 N 2 4 1 2 1006.2 1006.0 0.0
20/08:00pm 31.7 35.6 21.8 55 6.7 N 4 6 2 3 1006.1 1005.9 0.0
20/07:30pm 32.6 36.5 21.8 53 7.3 NNW 4 6 2 3 1005.7 1005.5 0.0
20/07:00pm 33.3 36.2 21.1 48 8.2 NNW 7 13 4 7 1004.8 1004.6 0.0
20/06:30pm 34.2 37.5 21.9 48 8.4 NNW 7 13 4 7 1004.6 1004.4 0.0
20/06:00pm 34.2 37.3 22.9 51 7.8 N 11 17 6 9 1004.3 1004.1 0.0
20/05:30pm 36.3 40.2 22.5 45 9.6 NNE 6 15 3 8 1003.9 1003.7 0.0
20/05:00pm 36.4 39.3 20.6 39 10.7 N 6 13 3 7 1003.9 1003.7 0.0
20/04:30pm 36.2 39.2 20.8 40 10.4 NNW 6 11 3 6 1003.8 1003.6 0.0
20/04:00pm 36.4 39.7 21.4 41 10.2 N 6 13 3 7 1004.1 1003.9 0.0
20/03:30pm 36.4 39.7 22.5 44 9.6 NNW 9 19 5 10 1004.5 1004.3 0.0
20/03:00pm 36.0 38.9 21.1 42 10.1 E 7 11 4 6 1005.2 1005.0 0.0
20/02:30pm 35.8 39.2 22.0 44 9.5 E 7 9 4 5 1005.6 1005.4 0.0
20/02:00pm 35.0 39.0 22.7 49 8.5 ENE 6 11 3 6 1006.0 1005.8 0.0
20/01:30pm 35.6 39.5 22.5 46 9.1 NNE 6 11 3 6 1006.5 1006.3 0.0
20/01:00pm 35.2 39.4 23.2 49 8.3 ENE 6 9 3 5 1007.2 1007.0 0.0
20/12:30pm 34.1 38.7 23.8 55 7.2 S 6 13 3 7 1007.8 1007.6 0.0
20/12:00pm 32.9 37.5 23.8 58 6.3 SE 6 11 3 6 1008.3 1008.1 0.0
20/11:30am 32.2 37.3 25.0 65 5.1 SE 7 11 4 6 1008.6 1008.4 0.0
20/11:00am 31.3 36.1 24.2 66 5.0 SE 6 9 3 5 1009.1 1008.9 0.0
20/10:30am 31.4 37.1 25.0 69 4.5 SE 4 9 2 5 1009.4 1009.2 0.0
20/10:00am 29.8 35.2 25.1 76 3.3 SSE 6 7 3 4 1009.5 1009.3 0.0
20/09:30am 28.5 34.5 24.9 81 2.5 SSW 2 6 1 3 1010.1 1009.9 0.0
20/09:00am 26.9 31.7 24.2 85 1.9 WSW 6 9 3 5 1009.9 1009.7 4.2
20/08:30am 26.6 31.4 24.1 86 1.7 S 6 9 3 5 1010.0 1009.8 4.2
20/08:00am 26.2 31.0 24.2 89 1.4 SSW 6 13 3 7 1010.1 1009.9 4.2
20/07:30am 26.2 30.7 24.6 91 1.1 SSW 9 15 5 8 1009.7 1009.5 4.2
20/07:00am 26.7 31.8 24.9 90 1.3 SSW 7 11 4 6 1009.3 1009.1 4.2
20/06:30am 26.9 32.7 24.5 87 1.7 NNE 2 6 1 3 1009.3 1009.1 4.2
20/06:00am 26.5 31.2 24.9 91 1.1 NNW 9 19 5 10 1009.1 1008.9 4.2
20/05:30am 26.5 31.4 24.7 90 1.3 S 7 11 4 6 1008.0 1007.8 4.2
20/05:00am 26.7 31.4 24.9 90 1.3 SSW 9 15 5 8 1008.1 1007.9 4.2
20/04:30am 27.0 33.3 26.0 94 0.7 SE 4 6 2 3 1007.5 1007.3 4.2
20/04:00am 27.0 33.8 26.1 95 0.6 SSW 2 6 1 3 1007.7 1007.5 4.2
20/03:30am 27.0 33.7 26.0 94 0.7 SE 2 4 1 2 1007.7 1007.5 4.2
20/03:00am 26.9 33.8 25.7 93 0.8 CALM 0 0 0 0 1007.8 1007.6 4.2
20/02:30am 26.9 33.9 25.9 94 0.7 CALM 0 0 0 0 1008.0 1007.8 4.2
20/02:00am 26.8 32.7 25.4 92 1.0 SE 4 6 2 3 1007.8 1007.6 4.2
20/01:30am 26.6 33.3 25.4 93 0.8 CALM 0 2 0 1 1007.8 1007.6 4.2
20/01:00am 26.6 33.3 25.4 93 0.8 CALM 0 0 0 0 1008.0 1007.8 4.2
20/12:30am 26.9 32.5 24.9 89 1.4 N 4 9 2 5 1009.5 1009.3 4.2
20/12:00am 26.8 33.4 25.2 91 1.1 CALM 0 0 0 0 1009.8 1009.6 4.2
 
Date/Time
CST
Temp
°C
App
Temp
°C
Dew
Point
Rel
Hum
%
Delta-T
°C
Wind Press
QNH
hPa
Press
MSL
hPa
Rain
since 9 am
mm
Dir
 
Spd
km/h
Gust
km/h
Spd
kts
Gust
kts
19/11:30pm 26.5 33.0 25.1 92 1.0 CALM 0 0 0 0 1009.7 1009.5 4.2
19/11:00pm 26.6 33.1 25.0 91 1.1 CALM 0 0 0 0 1010.1 1009.9 4.2
19/10:30pm 26.7 33.3 25.3 92 1.0 CALM 0 0 0 0 1009.8 1009.6 4.2
19/10:00pm 26.6 32.8 24.6 89 1.4 CALM 0 0 0 0 1009.3 1009.1 4.2
19/09:30pm 26.7 32.7 24.2 86 1.7 CALM 0 2 0 1 1008.8 1008.6 4.2
19/09:00pm 26.8 32.4 24.3 86 1.7 SSW 2 4 1 2 1008.6 1008.4 4.2
19/08:30pm 26.8 32.9 25.0 90 1.3 NNW 2 4 1 2 1008.1 1007.9 4.2
19/08:00pm 26.7 32.5 24.5 88 1.5 NE 2 4 1 2 1007.6 1007.4 4.2
19/07:30pm 27.1 32.7 24.2 84 2.0 SE 2 7 1 4 1007.6 1007.4 4.2
19/07:00pm 27.3 32.0 24.0 82 2.3 SW 6 11 3 6 1007.4 1007.2 4.2
19/06:30pm 30.0 36.4 27.0 84 2.2 WSW 7 20 4 11 1006.9 1006.7 4.2
19/06:00pm 30.3 38.5 28.1 88 1.6 W 2 6 1 3 1006.4 1006.2 4.2
19/05:30pm 30.0 38.1 28.0 89 1.5 SW 2 9 1 5 1006.4 1006.2 4.2
19/05:00pm 30.1 35.0 25.8 78 3.1 NE 11 19 6 10 1005.5 1005.3 3.0
19/04:59pm 30.4 35.2 25.7 76 3.3 NE 11 19 6 10 1005.5 1005.3 2.4
19/04:30pm 35.4 38.4 24.0 51 8.0 WNW 15 20 8 11 1005.0 1004.8 0.0
19/04:00pm 35.8 39.6 24.7 52 7.9 NW 13 20 7 11 1005.3 1005.1 0.0
19/03:30pm 35.5 38.4 24.4 52 7.9 NW 17 26 9 14 1005.5 1005.3 0.0
19/03:00pm 36.1 40.6 23.7 49 8.7 N 6 11 3 6 1006.2 1006.0 0.0
19/02:30pm 35.9 40.0 23.2 48 8.9 N 7 13 4 7 1006.7 1006.5 0.0
19/02:00pm 35.8 40.0 23.4 48 8.7 NNW 7 11 4 6 1007.3 1007.1 0.0
19/01:30pm 35.9 40.3 23.5 48 8.7 NNE 6 9 3 5 1007.8 1007.6 0.0
19/01:00pm 34.9 39.2 23.6 52 7.9 W 7 13 4 7 1008.5 1008.3 0.0
19/12:30pm 33.5 37.9 23.8 57 6.8 SSW 7 11 4 6 1009.1 1008.9 0.0
19/12:00pm 31.7 35.6 24.3 65 5.2 SW 11 17 6 9 1009.4 1009.2 0.0
19/11:30am 32.2 37.2 24.8 65 5.2 WNW 7 11 4 6 1009.8 1009.6 0.0
19/11:00am 31.3 35.9 24.7 68 4.6 W 9 19 5 10 1010.3 1010.1 0.0
19/10:30am 32.1 38.0 25.9 70 4.4 WSW 6 13 3 7 1010.3 1010.1 0.0
19/10:00am 33.1 39.5 26.1 66 5.0 S 4 9 2 5 1010.3 1010.1 0.0
19/09:30am 32.5 38.6 25.6 67 4.9 SSE 4 7 2 4 1010.3 1010.1 0.0
19/09:00am 32.6 38.5 25.9 68 4.8 SW 6 9 3 5 1010.3 1010.1 0.0
19/08:30am 31.8 39.3 26.6 74 3.7 CALM 0 0 0 0 1010.3 1010.1 0.0
19/08:00am 30.3 37.5 26.2 79 2.9 CALM 0 0 0 0 1010.1 1009.9 0.0
19/07:30am 28.8 35.9 26.0 85 2.0 CALM 0 0 0 0 1009.6 1009.4 0.0
19/07:00am 28.1 35.5 26.5 91 1.1 CALM 0 0 0 0 1009.5 1009.3 0.0
19/06:30am 27.7 34.6 25.7 89 1.4 CALM 0 0 0 0 1009.0 1008.8 0.0
19/06:00am 27.7 34.6 25.7 89 1.4 CALM 0 0 0 0 1008.6 1008.4 0.0
19/05:30am 27.8 35.0 26.2 91 1.1 CALM 0 0 0 0 1008.4 1008.2 0.0
19/05:00am 28.2 35.8 26.8 92 1.0 CALM 0 0 0 0 1008.1 1007.9 0.0
19/04:30am 28.1 35.7 26.7 92 1.0 CALM 0 0 0 0 1008.1 1007.9 0.0
19/04:00am 28.2 35.8 26.8 92 1.0 CALM 0 0 0 0 1007.8 1007.6 0.0
19/03:30am 28.2 35.7 26.6 91 1.1 CALM 0 0 0 0 1008.0 1007.8 0.0
19/03:00am 28.7 36.1 26.5 88 1.6 CALM 0 0 0 0 1008.0 1007.8 0.0
19/02:30am 29.1 36.8 26.9 88 1.6 CALM 0 0 0 0 1008.4 1008.2 0.0
19/02:00am 29.0 36.6 26.8 88 1.6 CALM 0 0 0 0 1008.5 1008.3 0.0
19/01:30am 29.0 36.6 26.8 88 1.6 CALM 0 0 0 0 1008.5 1008.3 0.0
19/01:00am 28.9 35.7 26.7 88 1.6 WNW 4 6 2 3 1008.4 1008.2 0.0
19/12:30am 28.7 36.3 26.7 89 1.4 CALM 0 0 0 0 1008.5 1008.3 0.0
19/12:00am 28.9 35.6 26.5 87 1.7 NNW 4 4 2 2 1008.5 1008.3 0.0
 
Date/Time
CST
Temp
°C
App
Temp
°C
Dew
Point
Rel
Hum
%
Delta-T
°C
Wind Press
QNH
hPa
Press
MSL
hPa
Rain
since 9 am
mm
Dir
 
Spd
km/h
Gust
km/h
Spd
kts
Gust
kts
18/11:30pm 29.3 36.3 26.5 85 2.0 W 2 4 1 2 1008.7 1008.5 0.0
18/11:00pm 29.5 36.5 26.5 84 2.1 NW 2 4 1 2 1008.9 1008.7 0.0
18/10:30pm 29.6 36.2 26.4 83 2.3 NW 4 7 2 4 1008.7 1008.5 0.0
18/10:00pm 29.8 36.4 26.4 82 2.4 NW 4 7 2 4 1008.5 1008.3 0.0
18/09:30pm 30.0 36.1 26.2 80 2.7 NW 6 9 3 5 1008.5 1008.3 0.0
18/09:00pm 30.0 36.0 26.0 79 2.9 NW 6 9 3 5 1008.0 1007.8 0.0
18/08:30pm 30.3 36.5 25.8 77 3.2 WNW 4 6 2 3 1008.0 1007.8 0.0
18/08:00pm 30.5 36.3 25.8 76 3.3 NW 6 7 3 4 1007.4 1007.2 0.0
18/07:30pm 30.9 36.8 25.9 74 3.6 WNW 6 7 3 4 1007.1 1006.9 0.0
18/07:00pm 31.1 36.7 25.4 71 4.0 WNW 6 19 3 10 1006.8 1006.6 0.0
18/06:30pm 31.5 36.9 25.1 69 4.5 WNW 6 11 3 6 1006.5 1006.3 0.0
18/06:00pm 31.8 36.7 24.7 66 5.0 WNW 7 13 4 7 1005.8 1005.6 0.0
18/05:30pm 32.5 36.7 23.4 58 6.3 WSW 7 13 4 7 1005.9 1005.7 0.0
18/05:00pm 31.2 34.7 22.2 58 6.1 WSW 7 13 4 7 1005.7 1005.5 0.0
18/04:30pm 31.0 33.3 22.0 58 6.1 WSW 13 19 7 10 1005.9 1005.7 0.0
18/04:00pm 32.3 37.0 26.1 70 4.4 NW 13 20 7 11 1005.9 1005.7 0.0
18/03:30pm 32.3 37.5 26.8 73 4.0 NNW 13 22 7 12 1006.0 1005.8 0.0
18/03:00pm 32.5 37.0 25.8 68 4.8 NNW 13 20 7 11 1006.9 1006.7 0.0
18/02:30pm 32.6 37.2 25.9 68 4.8 N 13 22 7 12 1007.2 1007.0 0.0
18/02:00pm 32.0 36.7 26.1 71 4.2 N 13 19 7 10 1007.4 1007.2 0.0
18/01:30pm 33.5 37.3 24.7 60 6.2 NW 13 19 7 10 1008.0 1007.8 0.0
18/01:00pm 31.4 33.6 23.2 61 5.7 WSW 17 24 9 13 1008.1 1007.9 0.0
18/12:30pm 31.3 35.7 24.4 66 4.8 NNW 9 15 5 8 1008.5 1008.3 0.0
18/12:00pm 33.5 38.3 25.7 63 5.6 NW 11 20 6 11 1008.8 1008.6 0.0
18/11:30am 33.6 39.1 25.6 63 5.7 NW 7 17 4 9 1009.0 1008.8 0.0
18/11:00am 33.9 39.0 26.1 63 5.6 W 11 19 6 10 1009.3 1009.1 0.0
18/10:30am 32.4 37.6 25.7 68 4.8 W 9 19 5 10 1009.5 1009.3 0.0
18/10:00am 32.9 38.4 26.2 68 4.8 NW 9 13 5 7 1009.4 1009.2 0.0
18/09:30am 32.2 38.5 26.0 70 4.4 W 4 9 2 5 1009.2 1009.0 0.0
18/09:00am 31.7 38.6 26.3 73 3.9 W 2 19 1 10 1008.9 1008.7 3.0
18/08:30am 31.2 38.6 26.5 76 3.4 CALM 0 0 0 0 1008.7 1008.5 3.0
18/08:00am 30.1 37.8 26.9 83 2.3 CALM 0 0 0 0 1008.5 1008.3 3.0
18/07:30am 28.6 36.6 27.4 93 0.9 CALM 0 0 0 0 1008.1 1007.9 3.0
18/07:00am 27.7 35.5 27.0 96 0.5 CALM 0 0 0 0 1007.7 1007.5 3.0
18/06:30am 27.5 35.1 26.8 96 0.5 CALM 0 0 0 0 1007.3 1007.1 3.0
18/06:00am 27.3 34.8 26.6 96 0.5 CALM 0 0 0 0 1006.9 1006.7 3.0
18/05:30am 27.3 34.8 26.6 96 0.5 CALM 0 0 0 0 1006.5 1006.3 3.0
18/05:00am 27.3 34.8 26.6 96 0.5 CALM 0 0 0 0 1006.4 1006.2 3.0
18/04:30am 27.5 35.1 26.8 96 0.5 CALM 0 0 0 0 1006.2 1006.0 3.0
18/04:00am 27.7 35.3 26.8 95 0.6 CALM 0 0 0 0 1005.9 1005.7 3.0
18/03:30am 27.9 35.7 27.0 95 0.6 CALM 0 0 0 0 1005.9 1005.7 3.0
18/03:00am 28.1 35.9 27.0 94 0.8 CALM 0 0 0 0 1005.9 1005.7 3.0
18/02:30am 28.3 36.2 27.2 94 0.8 CALM 0 0 0 0 1005.9 1005.7 3.0
18/02:00am 28.1 35.8 26.9 93 0.9 CALM 0 0 0 0 1006.0 1005.8 3.0
18/01:30am 28.3 36.0 26.9 92 1.0 CALM 0 0 0 0 1006.3 1006.1 3.0
18/01:00am 28.5 36.2 26.9 91 1.1 CALM 0 0 0 0 1006.5 1006.3 3.0
18/12:30am 28.5 35.4 26.9 91 1.1 NW 4 6 2 3 1006.5 1006.3 3.0
18/12:00am 28.5 36.3 27.1 92 1.0 CALM 0 0 0 0 1007.0 1006.8 3.0
 
Date/Time
CST
Temp
°C
App
Temp
°C
Dew
Point
Rel
Hum
%
Delta-T
°C
Wind Press
QNH
hPa
Press
MSL
hPa
Rain
since 9 am
mm
Dir
 
Spd
km/h
Gust
km/h
Spd
kts
Gust
kts
17/11:30pm 28.6 36.5 27.2 92 1.0 CALM 0 0 0 0 1007.5 1007.3 3.0
17/11:00pm 28.6 35.5 27.4 93 0.9 NE 6 7 3 4 1007.9 1007.7 3.0
17/10:30pm 29.2 37.2 27.4 90 1.3 CALM 0 0 0 0 1007.4 1007.2 3.0
17/10:00pm 29.2 36.9 27.4 90 1.3 SW 2 4 1 2 1007.3 1007.1 3.0

Other Formats:

Comma delimited format used in spreadsheet applications
http://www.bom.gov.au/fwo/IDD60801/IDD60801.94105.axf

JavaScript Object Notation format (JSON) in row-major order
http://www.bom.gov.au/fwo/IDD60801/IDD60801.94105.json